Time;durP1;ratioP1;P1;durP2;ratioP2;P2;SDS_P1;SDS_P2;PMS_P1;PMS_P2;Temp;Humidity;BMP_temperature;BMP_pressure;BME280_temperature;BME280_humidity;BME280_pressure;Samples;Min_cycle;Max_cycle;Signal;HPM_P1;HPM_P2
2021/11/07 00:04:43;;;;;;;;;;;307.80;2048.00;;;;;;5091125;28;19904;-60
2021/11/07 00:07:14;;;;;;;;;;;307.80;2048.00;;;;;;5093459;28;19991;-60
2021/11/07 00:12:18;;;;;;;;;;;307.90;2048.00;;;;;;5093303;28;20050;-59
2021/11/07 00:14:48;;;;;;;;;;;307.90;2048.00;;;;;;5087569;28;19916;-59
2021/11/07 00:17:15;;;;;;;;;;;308.00;2022.40;;;;;;5074623;28;19912;-60
2021/11/07 00:19:46;;;;;;;;;;;308.00;2022.40;;;;;;5074649;28;20347;-61
2021/11/07 00:24:49;;;;;;;;;;;308.10;1996.80;;;;;;5074639;28;19908;-61
2021/11/07 00:27:28;;;;;;;;;;;308.10;1996.80;;;;;;5074482;28;19905;-61
2021/11/07 00:33:06;;;;;;;;;;;308.10;1996.80;;;;;;5074678;28;20274;-60
2021/11/07 00:38:26;;;;;;;;;;;308.10;1996.80;;;;;;5074189;28;19912;-61
2021/11/07 00:43:48;;;;;;;;;;;308.10;1971.20;;;;;;5074162;28;19927;-59
2021/11/07 00:46:24;;;;;;;;;;;308.00;1996.80;;;;;;5074076;28;20343;-59
2021/11/07 00:48:56;;;;;;;;;;;308.00;1971.20;;;;;;5074017;28;19954;-60
2021/11/07 01:01:36;;;;;;;;;;;307.90;1996.80;;;;;;5074074;28;19908;-61
2021/11/07 01:04:03;;;;;;;;;;;307.90;1971.20;;;;;;5074131;28;20272;-60
2021/11/07 01:06:28;;;;;;;;;;;307.90;1971.20;;;;;;5077647;28;19905;-59
2021/11/07 01:08:54;;;;;;;;;;;307.80;1971.20;;;;;;5078191;28;19999;-61
2021/11/07 01:11:20;;;;;;;;;;;307.90;1971.20;;;;;;5078191;28;20377;-62
2021/11/07 01:13:46;;;;;;;;;;;307.80;1996.80;;;;;;5077746;28;19908;-61
2021/11/07 01:16:11;;;;;;;;;;;307.70;1996.80;;;;;;5077914;28;19950;-59
2021/11/07 01:18:37;;;;;;;;;;;307.70;1996.80;;;;;;5077880;28;19986;-60
2021/11/07 01:21:03;;;;;;;;;;;307.80;1996.80;;;;;;5078042;28;19999;-61
2021/11/07 01:23:56;;;;;;;;;;;307.70;1996.80;;;;;;5076099;28;20343;-63
2021/11/07 01:26:23;;;;;;;;;;;307.70;2022.40;;;;;;5077239;28;19958;-60
2021/11/07 01:28:54;;;;;;;;;;;307.70;1996.80;;;;;;5077831;28;19912;-60
2021/11/07 01:31:19;;;;;;;;;;;307.60;2022.40;;;;;;5077550;28;19908;-59
2021/11/07 01:33:45;;;;;;;;;;;307.70;2022.40;;;;;;5077345;28;20236;-59
2021/11/07 01:38:49;;;;;;;;;;;307.70;2022.40;;;;;;5077456;28;19911;-60
2021/11/07 01:43:59;;;;;;;;;;;307.80;2022.40;;;;;;5078037;28;19950;-60
2021/11/07 01:46:29;;;;;;;;;;;307.80;1996.80;;;;;;5077446;28;19905;-60
2021/11/07 01:49:04;;;;;;;;;;;307.80;2022.40;;;;;;5077048;28;20381;-60
2021/11/07 01:51:30;;;;;;;;;;;307.90;1996.80;;;;;;5077496;28;19905;-60
2021/11/07 01:54:06;;;;;;;;;;;307.90;1996.80;;;;;;5077053;28;20427;-59
2021/11/07 01:56:32;;;;;;;;;;;307.90;1996.80;;;;;;5077470;28;19904;-60
2021/11/07 01:58:58;;;;;;;;;;;307.90;1971.20;;;;;;5076589;28;19905;-61
2021/11/07 02:01:24;;;;;;;;;;;307.90;1971.20;;;;;;5074815;28;20000;-60
2021/11/07 02:03:50;;;;;;;;;;;307.90;1996.80;;;;;;5077071;28;19909;-60
2021/11/07 02:06:16;;;;;;;;;;;307.90;1971.20;;;;;;5077440;28;19904;-61
2021/11/07 02:08:42;;;;;;;;;;;307.90;1971.20;;;;;;5076760;28;19966;-60
2021/11/07 02:11:07;;;;;;;;;;;307.90;1996.80;;;;;;5076967;28;20251;-60
2021/11/07 02:13:33;;;;;;;;;;;307.90;1971.20;;;;;;5076812;28;20259;-60
2021/11/07 02:15:59;;;;;;;;;;;307.90;1971.20;;;;;;5076201;28;19908;-60
2021/11/07 02:18:25;;;;;;;;;;;307.90;1996.80;;;;;;5076550;28;19957;-60
2021/11/07 02:20:50;;;;;;;;;;;308.00;1971.20;;;;;;5076599;28;19908;-60
2021/11/07 02:23:18;;;;;;;;;;;308.00;1971.20;;;;;;5076765;28;19904;-60
2021/11/07 02:25:45;;;;;;;;;;;307.90;1996.80;;;;;;5076690;28;19904;-59
2021/11/07 02:28:12;;;;;;;;;;;307.90;1996.80;;;;;;5076665;28;19954;-61
2021/11/07 02:30:38;;;;;;;;;;;307.80;2022.40;;;;;;5076383;28;19904;-60
2021/11/07 02:33:04;;;;;;;;;;;307.80;1996.80;;;;;;5076383;28;19911;-59
2021/11/07 02:35:31;;;;;;;;;;;307.70;2022.40;;;;;;5076310;28;19916;-60
2021/11/07 02:37:57;;;;;;;;;;;307.70;2022.40;;;;;;5076459;28;19904;-61
2021/11/07 02:40:23;;;;;;;;;;;307.70;2022.40;;;;;;5076388;28;19904;-61
2021/11/07 02:42:49;;;;;;;;;;;307.80;1996.80;;;;;;5076407;28;19958;-60
2021/11/07 02:45:16;;;;;;;;;;;307.70;1996.80;;;;;;5076118;28;20092;-59
2021/11/07 02:47:44;;;;;;;;;;;307.70;2022.40;;;;;;5076000;28;19916;-59
2021/11/07 02:50:10;;;;;;;;;;;307.60;2022.40;;;;;;5076208;28;19909;-59
2021/11/07 02:52:35;;;;;;;;;;;307.70;1996.80;;;;;;5076051;28;19905;-60
2021/11/07 02:55:01;;;;;;;;;;;307.80;1996.80;;;;;;5076079;28;19919;-60
2021/11/07 02:57:27;;;;;;;;;;;307.90;1996.80;;;;;;5076534;28;20025;-59
2021/11/07 02:59:59;;;;;;;;;;;307.90;1971.20;;;;;;5076079;28;19927;-61
2021/11/07 03:02:28;;;;;;;;;;;307.90;1971.20;;;;;;5075994;28;19911;-61
2021/11/07 03:04:54;;;;;;;;;;;307.80;1971.20;;;;;;5076025;28;19904;-59
2021/11/07 03:07:20;;;;;;;;;;;307.70;1996.80;;;;;;5076000;28;19908;-61
2021/11/07 03:09:46;;;;;;;;;;;307.60;1996.80;;;;;;5075525;28;19905;-60
2021/11/07 03:12:12;;;;;;;;;;;307.50;2022.40;;;;;;5075669;28;19905;-60
2021/11/07 03:14:42;;;;;;;;;;;307.60;1996.80;;;;;;5073868;28;19920;-61
2021/11/07 03:17:09;;;;;;;;;;;307.60;1996.80;;;;;;5073816;28;20304;-60
2021/11/07 03:19:34;;;;;;;;;;;307.70;1996.80;;;;;;5075668;28;19904;-60
2021/11/07 03:22:03;;;;;;;;;;;307.60;1996.80;;;;;;5075424;28;20334;-61
2021/11/07 03:24:28;;;;;;;;;;;307.70;1996.80;;;;;;5075311;28;19911;-61
2021/11/07 03:26:55;;;;;;;;;;;307.70;1971.20;;;;;;5073848;28;20422;-61
2021/11/07 03:29:22;;;;;;;;;;;307.60;1971.20;;;;;;5075125;28;20003;-60
2021/11/07 03:32:05;;;;;;;;;;;307.60;1971.20;;;;;;5075391;28;19932;-61
2021/11/07 03:34:33;;;;;;;;;;;307.60;1971.20;;;;;;5075113;28;19995;-61
2021/11/07 03:37:02;;;;;;;;;;;307.50;1996.80;;;;;;5075358;28;19912;-59
2021/11/07 03:39:29;;;;;;;;;;;307.70;1971.20;;;;;;5073423;28;20350;-60
2021/11/07 03:41:55;;;;;;;;;;;307.50;1971.20;;;;;;5073679;28;19904;-61
2021/11/07 03:44:21;;;;;;;;;;;307.50;1971.20;;;;;;5074889;28;19905;-60
2021/11/07 03:46:48;;;;;;;;;;;307.50;1945.60;;;;;;5075066;28;19917;-60
2021/11/07 03:49:14;;;;;;;;;;;307.50;1971.20;;;;;;5074874;28;19905;-59
2021/11/07 03:51:40;;;;;;;;;;;307.50;1971.20;;;;;;5074900;28;19915;-59
2021/11/07 03:54:06;;;;;;;;;;;307.40;1971.20;;;;;;5074715;28;20369;-60
2021/11/07 03:56:33;;;;;;;;;;;307.40;1971.20;;;;;;5074920;28;19991;-60
2021/11/07 03:58:58;;;;;;;;;;;307.30;1971.20;;;;;;5074289;28;19904;-60
2021/11/07 04:01:24;;;;;;;;;;;307.30;1996.80;;;;;;5072578;28;20332;-61
2021/11/07 04:03:49;;;;;;;;;;;307.40;1971.20;;;;;;5074599;28;19914;-60
2021/11/07 04:06:16;;;;;;;;;;;307.30;1971.20;;;;;;5073109;28;19911;-60
2021/11/07 04:08:42;;;;;;;;;;;307.40;1971.20;;;;;;5072732;28;19904;-61
2021/11/07 04:11:08;;;;;;;;;;;307.40;1971.20;;;;;;5074585;28;19904;-59
2021/11/07 04:13:37;;;;;;;;;;;307.40;1945.60;;;;;;5074627;28;19908;-61
2021/11/07 04:16:03;;;;;;;;;;;307.50;1945.60;;;;;;5074705;28;20365;-60
2021/11/07 04:18:29;;;;;;;;;;;307.50;1945.60;;;;;;5074448;28;19905;-59
2021/11/07 04:20:54;;;;;;;;;;;307.30;1945.60;;;;;;5074620;28;19912;-60
2021/11/07 04:23:20;;;;;;;;;;;307.40;1971.20;;;;;;5074301;28;19908;-61
2021/11/07 04:25:46;;;;;;;;;;;307.30;1971.20;;;;;;5074351;28;19905;-61
2021/11/07 04:28:11;;;;;;;;;;;307.30;1945.60;;;;;;5074476;28;19958;-60
2021/11/07 04:30:37;;;;;;;;;;;307.20;1971.20;;;;;;5074302;28;19948;-61
2021/11/07 04:33:02;;;;;;;;;;;307.20;1971.20;;;;;;5074136;28;19908;-61
2021/11/07 04:35:31;;;;;;;;;;;307.20;1971.20;;;;;;5074260;28;19919;-61
2021/11/07 04:37:56;;;;;;;;;;;307.30;1971.20;;;;;;5074077;28;19905;-61
2021/11/07 04:40:25;;;;;;;;;;;307.30;1945.60;;;;;;5073333;28;20343;-59
2021/11/07 04:42:51;;;;;;;;;;;307.30;1945.60;;;;;;5074561;28;19912;-60
2021/11/07 04:45:17;;;;;;;;;;;307.30;1945.60;;;;;;5074063;28;19911;-61
2021/11/07 04:47:43;;;;;;;;;;;307.30;1920.00;;;;;;5074220;28;19955;-59
2021/11/07 04:50:10;;;;;;;;;;;307.30;1945.60;;;;;;5072579;28;19940;-61
2021/11/07 04:52:35;;;;;;;;;;;307.20;1945.60;;;;;;5074160;28;19904;-59
2021/11/07 04:55:01;;;;;;;;;;;307.20;1945.60;;;;;;5073821;28;20259;-60
2021/11/07 04:57:27;;;;;;;;;;;282.50;1945.60;;;;;;5073528;28;19904;-60
2021/11/07 04:59:52;;;;;;;;;;;307.20;1971.20;;;;;;5073866;28;19905;-59
2021/11/07 05:02:18;;;;;;;;;;;307.20;1945.60;;;;;;5074197;28;19995;-60
2021/11/07 05:04:43;;;;;;;;;;;282.50;1920.00;;;;;;5074084;28;19904;-59
2021/11/07 05:07:09;;;;;;;;;;;307.20;1945.60;;;;;;5074141;28;20358;-60
2021/11/07 05:09:35;;;;;;;;;;;307.20;1920.00;;;;;;5073508;28;19908;-60
2021/11/07 05:12:01;;;;;;;;;;;307.20;1920.00;;;;;;5073937;28;19905;-59
2021/11/07 05:14:27;;;;;;;;;;;307.30;1945.60;;;;;;5073630;28;20410;-60
2021/11/07 05:16:52;;;;;;;;;;;307.30;1920.00;;;;;;5074057;28;19944;-59
2021/11/07 05:19:18;;;;;;;;;;;307.20;1920.00;;;;;;5073301;28;20358;-61
2021/11/07 05:21:44;;;;;;;;;;;307.30;1920.00;;;;;;5073308;28;19905;-60
2021/11/07 05:24:09;;;;;;;;;;;307.30;1894.40;;;;;;5073718;28;20343;-60
2021/11/07 05:26:35;;;;;;;;;;;307.30;1894.40;;;;;;5074242;28;19965;-60
2021/11/07 05:29:02;;;;;;;;;;;307.30;1920.00;;;;;;5073502;28;19912;-61
2021/11/07 05:31:29;;;;;;;;;;;307.20;1920.00;;;;;;5071989;28;19905;-61
2021/11/07 05:33:54;;;;;;;;;;;282.50;1894.40;;;;;;5072300;28;19915;-61
2021/11/07 05:36:20;;;;;;;;;;;307.20;1945.60;;;;;;5073656;28;19909;-61
2021/11/07 05:38:46;;;;;;;;;;;282.50;1894.40;;;;;;5073878;28;19904;-59
2021/11/07 05:41:11;;;;;;;;;;;282.50;1920.00;;;;;;5073568;28;19905;-61
2021/11/07 05:43:38;;;;;;;;;;;282.40;1945.60;;;;;;5073950;28;19928;-60
2021/11/07 05:46:04;;;;;;;;;;;282.30;1945.60;;;;;;5073794;28;19904;-61
2021/11/07 05:48:29;;;;;;;;;;;282.30;1945.60;;;;;;5073401;28;19917;-61
2021/11/07 05:50:57;;;;;;;;;;;282.30;1996.80;;;;;;5073574;28;20278;-61
2021/11/07 05:53:23;;;;;;;;;;;282.40;1971.20;;;;;;5077123;28;19912;-60
2021/11/07 05:55:49;;;;;;;;;;;282.30;1971.20;;;;;;5077025;28;19966;-59
2021/11/07 05:58:14;;;;;;;;;;;282.30;1996.80;;;;;;5076962;28;19909;-60
2021/11/07 06:00:40;;;;;;;;;;;282.30;1971.20;;;;;;5076948;28;19943;-60
2021/11/07 06:03:07;;;;;;;;;;;282.40;1945.60;;;;;;5075202;28;19905;-59
2021/11/07 06:05:34;;;;;;;;;;;282.40;1971.20;;;;;;5077191;28;20326;-59
2021/11/07 06:07:59;;;;;;;;;;;282.40;1971.20;;;;;;5076326;28;19915;-60
2021/11/07 06:10:25;;;;;;;;;;;282.40;1945.60;;;;;;5096804;28;19905;-61
2021/11/07 06:12:51;;;;;;;;;;;282.50;1945.60;;;;;;5096972;28;19915;-59
2021/11/07 06:15:16;;;;;;;;;;;282.50;1971.20;;;;;;5097077;28;20387;-60
2021/11/07 06:17:42;;;;;;;;;;;307.20;2048.00;;;;;;5097238;28;19904;-59
2021/11/07 06:20:08;;;;;;;;;;;307.30;2022.40;;;;;;5096959;28;20243;-58
2021/11/07 06:22:34;;;;;;;;;;;307.30;1996.80;;;;;;5078428;28;19914;-58
2021/11/07 06:24:59;;;;;;;;;;;307.30;1971.20;;;;;;5096687;28;19908;-58
2021/11/07 06:27:28;;;;;;;;;;;307.20;1971.20;;;;;;5096862;28;19911;-58
2021/11/07 06:29:54;;;;;;;;;;;307.20;1971.20;;;;;;5096888;28;19911;-58
2021/11/07 06:32:19;;;;;;;;;;;282.50;1945.60;;;;;;5096590;28;19922;-58
2021/11/07 06:34:45;;;;;;;;;;;282.50;1971.20;;;;;;5096792;28;19912;-58
2021/11/07 06:37:10;;;;;;;;;;;282.40;1945.60;;;;;;5077952;28;19915;-58
2021/11/07 06:39:36;;;;;;;;;;;282.40;1971.20;;;;;;5096541;28;19911;-58
2021/11/07 06:42:02;;;;;;;;;;;282.40;1971.20;;;;;;5096690;28;20376;-58
2021/11/07 06:44:29;;;;;;;;;;;282.30;1971.20;;;;;;5096656;28;19904;-60
2021/11/07 06:46:55;;;;;;;;;;;282.30;1996.80;;;;;;5096124;28;19908;-61
2021/11/07 06:49:20;;;;;;;;;;;282.30;1996.80;;;;;;5078278;28;20002;-58
2021/11/07 06:51:46;;;;;;;;;;;282.30;1996.80;;;;;;5096977;28;19911;-58
2021/11/07 06:54:12;;;;;;;;;;;282.30;1996.80;;;;;;5096168;28;20003;-58
2021/11/07 06:56:39;;;;;;;;;;;282.20;2022.40;;;;;;5096491;28;19908;-58
2021/11/07 06:59:05;;;;;;;;;;;282.20;1996.80;;;;;;5096299;28;19904;-61
2021/11/07 07:01:32;;;;;;;;;;;282.20;2022.40;;;;;;5095926;28;19904;-60
2021/11/07 07:03:57;;;;;;;;;;;282.20;2022.40;;;;;;5095719;28;19904;-58
2021/11/07 07:06:23;;;;;;;;;;;282.10;2022.40;;;;;;5096793;28;20335;-59
2021/11/07 07:09:02;;;;;;;;;;;282.10;2048.00;;;;;;5095977;28;19903;-58
2021/11/07 07:11:51;;;;;;;;;;;282.10;2048.00;;;;;;5096095;28;20006;-60
2021/11/07 07:14:31;;;;;;;;;;;282.10;2048.00;;;;;;5095192;28;19912;-58
2021/11/07 07:22:27;;;;;;;;;;;282.10;2048.00;;;;;;5095912;28;19904;-58
2021/11/07 07:35:22;;;;;;;;;;;282.20;2073.60;;;;;;5095541;28;19959;-61
2021/11/07 07:37:47;;;;;;;;;;;282.20;2099.20;;;;;;5095822;28;19990;-58
2021/11/07 07:40:13;;;;;;;;;;;282.20;2073.60;;;;;;5095421;28;20335;-59
2021/11/07 07:42:39;;;;;;;;;;;282.30;2073.60;;;;;;5076600;28;19939;-58
2021/11/07 07:45:06;;;;;;;;;;;282.20;2073.60;;;;;;5095167;28;19933;-58
2021/11/07 07:47:32;;;;;;;;;;;282.30;2073.60;;;;;;5095173;28;19973;-58
2021/11/07 07:49:58;;;;;;;;;;;282.30;2073.60;;;;;;5095081;28;19904;-60
2021/11/07 07:52:25;;;;;;;;;;;282.30;2073.60;;;;;;5095152;28;19904;-58
2021/11/07 07:54:51;;;;;;;;;;;282.40;2073.60;;;;;;5095165;28;19947;-58
2021/11/07 07:57:17;;;;;;;;;;;282.40;2073.60;;;;;;5095149;28;20350;-58
2021/11/07 07:59:43;;;;;;;;;;;282.40;2073.60;;;;;;5095187;28;19986;-58
2021/11/07 08:02:09;;;;;;;;;;;282.40;2073.60;;;;;;5095121;28;20319;-60
2021/11/07 08:04:35;;;;;;;;;;;282.40;2073.60;;;;;;5094690;28;19949;-58
2021/11/07 08:07:01;;;;;;;;;;;282.40;2073.60;;;;;;5095130;28;19952;-58
2021/11/07 08:09:26;;;;;;;;;;;282.50;2073.60;;;;;;5094927;28;19904;-58
2021/11/07 08:11:52;;;;;;;;;;;282.50;2073.60;;;;;;5094962;28;20349;-58
2021/11/07 08:14:17;;;;;;;;;;;307.20;2073.60;;;;;;5093924;28;19970;-61
2021/11/07 08:16:43;;;;;;;;;;;307.20;2073.60;;;;;;5094401;28;19904;-58
2021/11/07 08:19:09;;;;;;;;;;;307.20;2073.60;;;;;;5076509;28;19904;-58
2021/11/07 08:21:39;;;;;;;;;;;307.30;2073.60;;;;;;5094742;28;19908;-58
2021/11/07 08:24:08;;;;;;;;;;;307.30;2073.60;;;;;;5094676;28;19904;-61
2021/11/07 08:26:35;;;;;;;;;;;307.30;2099.20;;;;;;5094684;28;19908;-58
2021/11/07 08:29:01;;;;;;;;;;;307.30;2073.60;;;;;;5095346;28;19912;-58
2021/11/07 08:31:28;;;;;;;;;;;307.40;2073.60;;;;;;5074285;28;19911;-59
2021/11/07 08:33:55;;;;;;;;;;;307.40;2073.60;;;;;;5072770;28;19904;-60
2021/11/07 08:36:31;;;;;;;;;;;307.50;2073.60;;;;;;5074162;28;19912;-59
2021/11/07 08:39:04;;;;;;;;;;;307.50;2073.60;;;;;;5073901;28;19909;-59
2021/11/07 08:41:31;;;;;;;;;;;307.50;2073.60;;;;;;5074183;28;19904;-59
2021/11/07 09:05:24;;;;;;;;;;;307.80;2048.00;;;;;;5074378;28;19904;-59
2021/11/07 09:10:33;;;;;;;;;;;307.80;2073.60;;;;;;5085830;28;19916;-60
2021/11/07 09:13:00;;;;;;;;;;;307.90;2073.60;;;;;;5094426;28;19908;-59
2021/11/07 09:15:27;;;;;;;;;;;307.90;2048.00;;;;;;5094191;28;19916;-60
2021/11/07 09:17:54;;;;;;;;;;;308.00;2048.00;;;;;;5091306;28;19904;-59
2021/11/07 09:20:25;;;;;;;;;;;308.00;2048.00;;;;;;5094216;28;19904;-58
2021/11/07 09:22:58;;;;;;;;;;;308.00;2048.00;;;;;;5095526;28;20006;-60
2021/11/07 09:25:27;;;;;;;;;;;308.10;2048.00;;;;;;5095505;28;20333;-60
2021/11/07 09:28:07;;;;;;;;;;;308.10;2022.40;;;;;;5098932;28;19910;-61
2021/11/07 09:33:19;;;;;;;;;;;332.80;2073.60;;;;;;5077359;28;19904;-59
2021/11/07 09:40:46;;;;;;;;;;;332.80;2048.00;;;;;;5077043;28;19911;-59
2021/11/07 09:43:22;;;;;;;;;;;332.80;2048.00;;;;;;5077213;28;20304;-58
2021/11/07 09:46:08;;;;;;;;;;;332.80;2048.00;;;;;;5077326;28;19904;-61
2021/11/07 09:48:37;;;;;;;;;;;332.80;2048.00;;;;;;5076937;28;19927;-61
2021/11/07 09:51:04;;;;;;;;;;;332.80;2022.40;;;;;;5077069;28;19950;-60
2021/11/07 09:53:31;;;;;;;;;;;332.80;2022.40;;;;;;5095008;28;19916;-62
2021/11/07 09:55:58;;;;;;;;;;;332.80;2022.40;;;;;;5095246;28;19919;-64
2021/11/07 09:58:24;;;;;;;;;;;332.80;2022.40;;;;;;5096302;28;20274;-61
2021/11/07 10:00:52;;;;;;;;;;;332.80;2048.00;;;;;;5093681;28;19911;-64
2021/11/07 10:03:19;;;;;;;;;;;332.90;2022.40;;;;;;5089898;28;19958;-60
2021/11/07 10:05:48;;;;;;;;;;;332.80;2022.40;;;;;;5076680;28;20003;-60
2021/11/07 10:08:14;;;;;;;;;;;332.90;2022.40;;;;;;5076833;28;19995;-60
2021/11/07 10:10:48;;;;;;;;;;;333.00;2022.40;;;;;;5076605;28;19909;-62
2021/11/07 10:13:21;;;;;;;;;;;332.90;2022.40;;;;;;5076679;28;19957;-63
2021/11/07 10:15:50;;;;;;;;;;;333.00;2022.40;;;;;;5074694;28;19913;-63
2021/11/07 10:18:39;;;;;;;;;;;333.00;2022.40;;;;;;5076996;28;19905;-60
2021/11/07 10:21:16;;;;;;;;;;;333.00;2022.40;;;;;;5076615;28;20296;-61
2021/11/07 10:23:46;;;;;;;;;;;333.00;2022.40;;;;;;5076211;28;20012;-63
2021/11/07 10:26:22;;;;;;;;;;;333.00;2022.40;;;;;;5077917;28;20373;-63
2021/11/07 10:28:52;;;;;;;;;;;332.90;2022.40;;;;;;5078271;28;20345;-63
2021/11/07 10:31:27;;;;;;;;;;;332.90;2022.40;;;;;;5098040;28;19948;-62
2021/11/07 10:45:22;;;;;;;;;;;332.90;2022.40;;;;;;5109741;28;19920;-61
2021/11/07 10:53:15;;;;;;;;;;;333.00;2022.40;;;;;;5096518;28;20369;-61
2021/11/07 10:55:45;;;;;;;;;;;333.00;2022.40;;;;;;5092656;28;19924;-62
2021/11/07 10:58:11;;;;;;;;;;;333.00;2022.40;;;;;;5110356;28;20044;-62
2021/11/07 11:00:39;;;;;;;;;;;333.00;2022.40;;;;;;5097914;28;19944;-60
2021/11/07 11:03:04;;;;;;;;;;;333.10;2048.00;;;;;;5116872;28;19904;-60
2021/11/07 11:05:38;;;;;;;;;;;333.00;2022.40;;;;;;5116485;28;19914;-63
2021/11/07 11:08:09;;;;;;;;;;;333.00;2022.40;;;;;;5097643;28;19904;-63
2021/11/07 11:10:47;;;;;;;;;;;333.00;1996.80;;;;;;5116337;28;19910;-63
2021/11/07 11:13:23;;;;;;;;;;;333.00;2022.40;;;;;;5097731;28;19922;-60
2021/11/07 11:15:52;;;;;;;;;;;333.10;1996.80;;;;;;5116323;28;19911;-60
2021/11/07 11:18:43;;;;;;;;;;;333.10;1996.80;;;;;;5116623;28;20235;-61
2021/11/07 11:21:31;;;;;;;;;;;333.10;1996.80;;;;;;5116258;28;19910;-63
2021/11/07 11:24:23;;;;;;;;;;;333.10;1996.80;;;;;;5116118;28;19920;-64
2021/11/07 11:27:03;;;;;;;;;;;333.10;2022.40;;;;;;5116621;28;19903;-63
2021/11/07 11:29:54;;;;;;;;;;;333.20;1996.80;;;;;;5116165;28;19956;-63
2021/11/07 11:37:27;;;;;;;;;;;333.20;1996.80;;;;;;5115812;28;19994;-60
2021/11/07 11:40:03;;;;;;;;;;;333.20;1971.20;;;;;;5115640;28;19910;-60
2021/11/07 11:42:36;;;;;;;;;;;333.20;1971.20;;;;;;5116120;28;19948;-60
2021/11/07 11:45:03;;;;;;;;;;;333.20;1971.20;;;;;;5115465;28;19911;-60
2021/11/07 11:47:39;;;;;;;;;;;333.20;1971.20;;;;;;5115448;28;19916;-63
2021/11/07 11:58:40;;;;;;;;;;;333.20;1971.20;;;;;;5115696;28;19903;-63
2021/11/07 12:01:02;;;;;;;;;;;333.20;1971.20;;;;;;5099006;28;20376;-60
2021/11/07 12:03:31;;;;;;;;;;;333.20;1971.20;;;;;;5115488;28;20257;-62
2021/11/07 12:06:05;;;;;;;;;;;333.20;1996.80;;;;;;5115425;28;19910;-63
2021/11/07 12:08:41;;;;;;;;;;;333.10;1996.80;;;;;;5115503;28;19999;-60
2021/11/07 12:11:14;;;;;;;;;;;333.20;1996.80;;;;;;5115118;28;19904;-60
2021/11/07 12:16:21;;;;;;;;;;;333.20;1996.80;;;;;;5115169;28;20000;-61
2021/11/07 12:19:08;;;;;;;;;;;333.20;1996.80;;;;;;5114938;28;20436;-60
2021/11/07 12:21:56;;;;;;;;;;;333.20;1996.80;;;;;;5114890;28;20430;-60
2021/11/07 12:24:27;;;;;;;;;;;333.20;1996.80;;;;;;5115011;28;19903;-60
2021/11/07 12:27:13;;;;;;;;;;;333.20;1971.20;;;;;;5115086;28;19984;-63
2021/11/07 12:29:39;;;;;;;;;;;333.20;1996.80;;;;;;5115061;28;19926;-60
2021/11/07 12:32:06;;;;;;;;;;;333.20;1996.80;;;;;;5114735;28;19904;-63
2021/11/07 12:34:53;;;;;;;;;;;333.20;1996.80;;;;;;5114900;28;20000;-60
2021/11/07 12:40:36;;;;;;;;;;;333.20;1996.80;;;;;;5114855;28;19910;-63
2021/11/07 12:43:05;;;;;;;;;;;333.30;1996.80;;;;;;5114888;28;20277;-63
2021/11/07 12:45:36;;;;;;;;;;;333.30;1996.80;;;;;;5113287;28;19907;-63
2021/11/07 12:48:05;;;;;;;;;;;333.30;1996.80;;;;;;5091048;28;19920;-60
2021/11/07 12:51:04;;;;;;;;;;;333.20;1996.80;;;;;;5092161;28;19944;-66
2021/11/07 12:53:50;;;;;;;;;;;333.20;1971.20;;;;;;5019598;28;20016;-69
2021/11/07 12:56:25;;;;;;;;;;;333.20;1996.80;;;;;;5024657;28;20394;-63
2021/11/07 12:58:52;;;;;;;;;;;333.20;1996.80;;;;;;5014864;28;19928;-61
2021/11/07 13:01:18;;;;;;;;;;;333.20;1971.20;;;;;;5027506;28;20275;-59
2021/11/07 13:03:47;;;;;;;;;;;333.20;1996.80;;;;;;5026981;28;19913;-62
2021/11/07 13:06:13;;;;;;;;;;;333.20;1996.80;;;;;;5030569;28;19905;-63
2021/11/07 13:08:43;;;;;;;;;;;333.20;1996.80;;;;;;5023270;28;19964;-60
2021/11/07 13:11:17;;;;;;;;;;;333.20;1996.80;;;;;;5027117;28;20330;-60
2021/11/07 13:13:51;;;;;;;;;;;333.20;1996.80;;;;;;5010219;28;19921;-61
2021/11/07 13:34:59;;;;;;;;;;;333.20;1996.80;;;;;;5039344;28;19924;-62
2021/11/07 13:37:39;;;;;;;;;;;333.10;1996.80;;;;;;5037699;28;20263;-60
2021/11/07 13:40:14;;;;;;;;;;;333.10;1996.80;;;;;;5035050;28;19909;-63
2021/11/07 13:42:41;;;;;;;;;;;333.10;1996.80;;;;;;5036848;28;19905;-60
2021/11/07 13:45:08;;;;;;;;;;;333.10;1996.80;;;;;;5036313;28;19992;-61
2021/11/07 13:47:36;;;;;;;;;;;333.00;1996.80;;;;;;5036698;28;19917;-63
2021/11/07 13:50:07;;;;;;;;;;;333.00;2022.40;;;;;;5034134;28;19920;-60
2021/11/07 13:52:33;;;;;;;;;;;333.00;2022.40;;;;;;5036131;28;19913;-61
2021/11/07 13:54:58;;;;;;;;;;;333.00;2022.40;;;;;;5036442;28;19913;-60
2021/11/07 13:57:28;;;;;;;;;;;333.00;2022.40;;;;;;5036352;28;19952;-60
2021/11/07 13:59:53;;;;;;;;;;;333.00;1996.80;;;;;;5041650;28;19916;-62
2021/11/07 14:02:20;;;;;;;;;;;333.00;1996.80;;;;;;5098570;28;19911;-60
2021/11/07 14:04:47;;;;;;;;;;;332.90;2022.40;;;;;;5099158;28;19908;-62
2021/11/07 14:07:22;;;;;;;;;;;332.90;2022.40;;;;;;5097723;28;19959;-60
2021/11/07 14:09:57;;;;;;;;;;;332.90;2022.40;;;;;;5098141;28;19911;-63
2021/11/07 14:12:30;;;;;;;;;;;332.80;1996.80;;;;;;5093844;28;20274;-60
2021/11/07 14:15:07;;;;;;;;;;;332.80;2022.40;;;;;;5091618;28;19912;-60
2021/11/07 14:17:32;;;;;;;;;;;332.80;2022.40;;;;;;5084623;28;20349;-60
2021/11/07 14:19:58;;;;;;;;;;;308.10;1996.80;;;;;;5094772;28;19915;-60
2021/11/07 14:22:24;;;;;;;;;;;308.10;1996.80;;;;;;5094687;28;19904;-60
2021/11/07 14:24:50;;;;;;;;;;;308.00;1996.80;;;;;;5094424;28;20335;-61
2021/11/07 14:27:22;;;;;;;;;;;308.10;1996.80;;;;;;5084747;28;19908;-60
2021/11/07 14:29:58;;;;;;;;;;;308.10;1996.80;;;;;;5094316;28;19989;-60
2021/11/07 14:32:29;;;;;;;;;;;308.00;1996.80;;;;;;5092271;28;19957;-61
2021/11/07 14:35:12;;;;;;;;;;;308.00;2022.40;;;;;;5091873;28;19941;-60
2021/11/07 14:40:13;;;;;;;;;;;308.00;2022.40;;;;;;5094237;28;19995;-63
2021/11/07 14:46:24;;;;;;;;;;;307.90;2022.40;;;;;;5061665;28;20275;-62
2021/11/07 15:04:13;;;;;;;;;;;307.80;2022.40;;;;;;5060993;28;19935;-60
2021/11/07 15:14:48;;;;;;;;;;;307.80;2022.40;;;;;;5026370;28;19932;-61
2021/11/07 15:17:14;;;;;;;;;;;307.80;2022.40;;;;;;5026501;28;19980;-61
2021/11/07 15:22:09;;;;;;;;;;;307.80;2022.40;;;;;;5039892;28;19904;-60
2021/11/07 15:24:41;;;;;;;;;;;307.80;1996.80;;;;;;5034092;28;20345;-61
2021/11/07 15:27:12;;;;;;;;;;;307.80;2022.40;;;;;;5040987;28;19944;-61
2021/11/07 15:32:41;;;;;;;;;;;307.80;2022.40;;;;;;4991830;28;19913;-61
2021/11/07 15:35:21;;;;;;;;;;;307.70;2048.00;;;;;;4981602;28;19952;-60
2021/11/07 15:37:47;;;;;;;;;;;307.70;2022.40;;;;;;4988630;28;19906;-61
2021/11/07 15:40:15;;;;;;;;;;;307.80;2048.00;;;;;;4991338;28;19905;-62
2021/11/07 15:42:42;;;;;;;;;;;307.80;2048.00;;;;;;4991505;28;19913;-62
2021/11/07 15:45:14;;;;;;;;;;;307.80;2048.00;;;;;;4991017;28;19906;-60
2021/11/07 15:47:47;;;;;;;;;;;307.80;2048.00;;;;;;5008981;28;19964;-62
2021/11/07 16:03:24;;;;;;;;;;;307.90;2048.00;;;;;;5010787;28;19906;-61
2021/11/07 16:06:03;;;;;;;;;;;307.80;2048.00;;;;;;4993526;28;20008;-63
2021/11/07 16:08:57;;;;;;;;;;;307.90;2073.60;;;;;;5062555;28;19904;-64
2021/11/07 16:11:33;;;;;;;;;;;307.90;2048.00;;;;;;5091996;28;19907;-63
2021/11/07 16:14:07;;;;;;;;;;;307.90;2048.00;;;;;;5091706;28;20460;-63
2021/11/07 16:19:12;;;;;;;;;;;307.90;2048.00;;;;;;5092999;28;19911;-63
2021/11/07 16:21:46;;;;;;;;;;;307.90;2048.00;;;;;;5075732;28;19935;-63
2021/11/07 16:24:12;;;;;;;;;;;307.90;2048.00;;;;;;5091692;28;19956;-63
2021/11/07 16:26:38;;;;;;;;;;;307.90;2048.00;;;;;;5096205;28;19903;-62
2021/11/07 16:29:04;;;;;;;;;;;307.90;2048.00;;;;;;5077005;28;19994;-64
2021/11/07 16:31:33;;;;;;;;;;;307.80;2048.00;;;;;;5094080;28;20411;-65
2021/11/07 16:34:04;;;;;;;;;;;307.80;1996.80;;;;;;5094299;28;19911;-64
2021/11/07 16:36:34;;;;;;;;;;;307.80;2022.40;;;;;;5093650;28;19912;-66
2021/11/07 16:39:09;;;;;;;;;;;307.90;2022.40;;;;;;5092492;28;19904;-63
2021/11/07 16:41:50;;;;;;;;;;;307.80;2022.40;;;;;;5093817;28;19904;-64
2021/11/07 16:44:17;;;;;;;;;;;307.80;2073.60;;;;;;5092887;28;20273;-66
2021/11/07 16:46:49;;;;;;;;;;;307.80;2048.00;;;;;;5092103;28;19927;-65
2021/11/07 16:49:18;;;;;;;;;;;307.80;2048.00;;;;;;5093812;28;19912;-65
2021/11/07 16:52:28;;;;;;;;;;;307.80;2048.00;;;;;;5093296;28;20002;-65
2021/11/07 16:54:36;;;;;;;;;;;307.80;2022.40;;;;;;5087473;28;19916;-65
2021/11/07 16:57:02;;;;;;;;;;;307.80;2048.00;;;;;;5091977;28;19940;-67
2021/11/07 16:59:33;;;;;;;;;;;307.80;2022.40;;;;;;5092187;28;19961;-68